Time;durP1;ratioP1;P1;durP2;ratioP2;P2;SDS_P1;SDS_P2;PMS_P1;PMS_P2;Temp;Humidity;BMP_temperature;BMP_pressure;BME280_temperature;BME280_humidity;BME280_pressure;Samples;Min_cycle;Max_cycle;Signal;HPM_P1;HPM_P2
2023/08/08 00:00:03;;;;;;;1.92;0.70;;;;;;;13.88;100.00;100310.69;5607049;31;33834;-70
2023/08/08 00:03:06;;;;;;;1.58;0.60;;;;;;;13.87;100.00;100312.53;5607083;31;33824;-70
2023/08/08 00:06:09;;;;;;;2.20;0.50;;;;;;;13.92;100.00;100319.94;5605793;31;34089;-70
2023/08/08 00:09:11;;;;;;;0.85;0.50;;;;;;;13.95;100.00;100330.22;5606977;31;34760;-68
2023/08/08 00:12:14;;;;;;;0.88;0.50;;;;;;;13.93;100.00;100330.44;5607302;31;33697;-70
2023/08/08 00:15:17;;;;;;;0.80;0.60;;;;;;;13.90;100.00;100338.78;5606881;31;33697;-70
2023/08/08 00:18:20;;;;;;;1.15;0.55;;;;;;;13.80;100.00;100335.63;5606988;31;33787;-69
2023/08/08 00:21:22;;;;;;;5.18;0.62;;;;;;;13.73;100.00;100339.25;5607221;31;34055;-71
2023/08/08 00:24:25;;;;;;;0.82;0.50;;;;;;;13.78;100.00;100336.84;5606945;31;34062;-70
2023/08/08 00:27:28;;;;;;;0.50;0.50;;;;;;;13.87;100.00;100341.03;5606830;31;34525;-70
2023/08/08 00:30:31;;;;;;;2.97;0.50;;;;;;;13.91;100.00;100337.78;5606858;31;33785;-71
2023/08/08 00:33:33;;;;;;;1.75;0.52;;;;;;;14.00;100.00;100343.00;5606789;31;34185;-68
2023/08/08 00:36:36;;;;;;;1.20;0.50;;;;;;;13.98;100.00;100345.03;5606599;31;34792;-71
2023/08/08 00:39:42;;;;;;;1.37;0.60;;;;;;;13.92;100.00;100350.13;5606768;31;34598;-70
2023/08/08 00:42:46;;;;;;;1.45;0.65;;;;;;;13.87;100.00;100355.19;5606973;31;33536;-71
2023/08/08 00:45:50;;;;;;;0.68;0.50;;;;;;;13.80;100.00;100356.94;5606710;31;34526;-70
2023/08/08 00:48:53;;;;;;;1.37;0.50;;;;;;;13.81;100.00;100361.28;5606642;31;33827;-71
2023/08/08 00:51:57;;;;;;;2.10;0.60;;;;;;;13.80;100.00;100361.44;5606601;31;35007;-70
2023/08/08 00:55:01;;;;;;;0.60;0.50;;;;;;;13.73;100.00;100357.91;5606665;31;33639;-71
2023/08/08 00:58:04;;;;;;;0.65;0.47;;;;;;;13.62;100.00;100359.22;5600370;31;35763;-70
2023/08/08 01:01:07;;;;;;;1.67;0.68;;;;;;;13.69;100.00;100357.47;5606396;31;34080;-70
2023/08/08 01:04:12;;;;;;;1.12;0.65;;;;;;;13.77;100.00;100361.84;5606450;31;33904;-71
2023/08/08 01:07:42;;;;;;;0.90;0.55;;;;;;;13.78;100.00;100367.00;5606425;31;35389;-70
2023/08/08 01:10:44;;;;;;;1.10;0.60;;;;;;;13.78;100.00;100371.50;5606367;31;34440;-70
2023/08/08 01:13:48;;;;;;;0.70;0.50;;;;;;;13.74;100.00;100376.37;5606251;31;33876;-69
2023/08/08 01:16:51;;;;;;;1.50;0.75;;;;;;;13.87;100.00;100367.69;5606035;31;34721;-70
2023/08/08 01:19:55;;;;;;;1.75;0.80;;;;;;;13.85;100.00;100380.38;5605307;31;33793;-70
2023/08/08 01:22:57;;;;;;;1.05;0.60;;;;;;;13.81;100.00;100365.78;5606190;31;33744;-70
2023/08/08 01:26:03;;;;;;;0.98;0.55;;;;;;;13.81;100.00;100385.28;5605261;31;34443;-68
2023/08/08 01:29:06;;;;;;;1.17;0.65;;;;;;;13.86;100.00;100374.88;5606062;31;33911;-69
2023/08/08 01:32:10;;;;;;;1.27;0.70;;;;;;;13.85;100.00;100375.87;5605978;31;34597;-69
2023/08/08 01:35:13;;;;;;;1.17;0.70;;;;;;;13.86;100.00;100369.53;5605930;31;34426;-70
2023/08/08 01:38:43;;;;;;;1.77;0.70;;;;;;;13.83;100.00;100361.09;5605818;31;34094;-70
2023/08/08 01:41:48;;;;;;;2.40;0.77;;;;;;;13.83;100.00;100361.91;5605849;31;34328;-69
2023/08/08 01:44:53;;;;;;;2.05;0.80;;;;;;;13.74;100.00;100364.91;5605661;31;34509;-70
2023/08/08 01:47:55;;;;;;;3.10;0.80;;;;;;;13.73;100.00;100365.91;5605629;31;33456;-70
2023/08/08 01:50:58;;;;;;;2.28;0.88;;;;;;;13.61;100.00;100362.87;5605670;31;33799;-69
2023/08/08 01:54:01;;;;;;;2.87;0.80;;;;;;;13.62;100.00;100361.88;5605578;31;34524;-72
2023/08/08 01:57:04;;;;;;;1.30;0.90;;;;;;;13.61;100.00;100367.38;5605569;31;34372;-68
2023/08/08 02:00:07;;;;;;;3.08;1.02;;;;;;;13.58;100.00;100359.78;5605562;31;33899;-68
2023/08/08 02:03:16;;;;;;;2.83;0.87;;;;;;;13.55;100.00;100365.50;5605437;31;33965;-69
2023/08/08 02:06:19;;;;;;;2.35;0.85;;;;;;;13.46;100.00;100370.91;5605265;31;33946;-71
2023/08/08 02:09:22;;;;;;;2.33;0.93;;;;;;;13.40;100.00;100374.34;5605201;31;33956;-72
2023/08/08 02:12:26;;;;;;;2.85;0.95;;;;;;;13.37;100.00;100380.03;5605300;31;34648;-71
2023/08/08 02:15:29;;;;;;;2.25;0.80;;;;;;;13.28;100.00;100380.31;5605149;31;34329;-71
2023/08/08 02:18:33;;;;;;;1.75;1.00;;;;;;;13.22;100.00;100381.88;5605186;31;34467;-71
2023/08/08 02:21:36;;;;;;;3.08;1.00;;;;;;;13.16;100.00;100389.78;5605193;31;32436;-71
2023/08/08 02:24:39;;;;;;;2.25;1.15;;;;;;;13.08;100.00;100394.16;5605013;31;33891;-71
2023/08/08 02:27:42;;;;;;;1.80;0.95;;;;;;;12.96;100.00;100398.31;5605968;31;33755;-71
2023/08/08 02:30:45;;;;;;;2.00;1.08;;;;;;;12.99;100.00;100397.94;5607906;31;33673;-71
2023/08/08 02:33:50;;;;;;;1.52;1.02;;;;;;;13.01;100.00;100393.25;5607846;31;34206;-71
2023/08/08 02:36:53;;;;;;;1.60;1.05;;;;;;;12.99;100.00;100395.25;5607854;31;33814;-71
2023/08/08 02:39:55;;;;;;;2.70;1.15;;;;;;;13.01;100.00;100403.91;5607635;31;34803;-71
2023/08/08 02:42:58;;;;;;;2.62;1.15;;;;;;;12.96;100.00;100394.81;5607877;31;34359;-71
2023/08/08 02:46:01;;;;;;;2.83;1.00;;;;;;;12.94;100.00;100392.31;5607712;31;34705;-69
2023/08/08 02:49:05;;;;;;;2.12;1.02;;;;;;;12.92;100.00;100390.88;5607798;31;34372;-72
2023/08/08 02:52:08;;;;;;;3.10;1.05;;;;;;;12.81;100.00;100396.63;5607835;31;33818;-71
2023/08/08 02:55:11;;;;;;;2.00;0.93;;;;;;;12.81;100.00;100400.13;5608042;31;34529;-72
2023/08/08 02:58:14;;;;;;;2.35;0.95;;;;;;;12.87;100.00;100409.22;5607996;31;33676;-71
2023/08/08 03:01:17;;;;;;;3.47;0.90;;;;;;;12.88;100.00;100410.84;5608030;31;34475;-71
2023/08/08 03:04:20;;;;;;;3.03;1.10;;;;;;;12.89;100.00;100409.84;5607532;31;33660;-72
2023/08/08 03:07:24;;;;;;;3.53;1.05;;;;;;;12.83;100.00;100413.25;5607454;31;33965;-72
2023/08/08 03:10:27;;;;;;;1.70;1.25;;;;;;;12.74;100.00;100412.50;5607456;31;33927;-71
2023/08/08 03:13:30;;;;;;;3.15;1.10;;;;;;;12.78;100.00;100405.00;5607510;31;34362;-71
2023/08/08 03:16:34;;;;;;;1.65;1.02;;;;;;;12.70;100.00;100400.56;5606672;31;33821;-71
2023/08/08 03:19:38;;;;;;;1.85;1.00;;;;;;;12.63;100.00;100410.28;5607817;31;33818;-71
2023/08/08 03:22:40;;;;;;;2.53;1.12;;;;;;;12.62;100.00;100409.44;5607476;31;33952;-71
2023/08/08 03:25:43;;;;;;;1.50;1.00;;;;;;;12.58;100.00;100413.50;5607177;31;33669;-71
2023/08/08 03:28:50;;;;;;;3.17;1.12;;;;;;;12.55;100.00;100413.00;5607689;31;34575;-71
2023/08/08 03:31:54;;;;;;;4.28;1.20;;;;;;;12.53;100.00;100426.50;5607354;31;33761;-71
2023/08/08 03:34:57;;;;;;;2.62;1.00;;;;;;;12.60;100.00;100427.41;5607320;31;33928;-71
2023/08/08 03:38:00;;;;;;;3.55;1.30;;;;;;;12.60;100.00;100427.41;5607247;31;33726;-71
2023/08/08 03:41:02;;;;;;;2.42;1.15;;;;;;;12.59;100.00;100436.41;5605960;31;35874;-71
2023/08/08 03:44:06;;;;;;;1.55;0.95;;;;;;;12.64;100.00;100441.19;5606951;31;33900;-71
2023/08/08 03:47:09;;;;;;;3.33;1.15;;;;;;;12.56;100.00;100442.09;5607454;31;34017;-71
2023/08/08 03:50:21;;;;;;;2.45;1.20;;;;;;;12.55;100.00;100453.75;5607240;31;34696;-71
2023/08/08 03:53:24;;;;;;;3.05;1.33;;;;;;;12.45;100.00;100455.81;5606934;31;33705;-71
2023/08/08 03:56:27;;;;;;;4.37;1.52;;;;;;;12.40;100.00;100466.16;5607411;31;33898;-71
2023/08/08 03:59:30;;;;;;;1.98;1.00;;;;;;;12.37;100.00;100463.03;5606918;31;33953;-71
2023/08/08 04:02:33;;;;;;;1.55;1.10;;;;;;;12.47;100.00;100477.75;5607374;31;33689;-71
2023/08/08 04:05:36;;;;;;;3.00;1.25;;;;;;;12.45;100.00;100481.59;5603027;31;33889;-71
2023/08/08 04:08:39;;;;;;;6.50;1.30;;;;;;;12.50;100.00;100484.56;5604575;31;34698;-71
2023/08/08 04:11:42;;;;;;;3.37;1.20;;;;;;;12.45;100.00;100484.25;5606891;31;32592;-70
2023/08/08 04:14:45;;;;;;;4.07;1.30;;;;;;;12.50;100.00;100490.69;5606870;31;34040;-71
2023/08/08 04:17:48;;;;;;;3.78;1.10;;;;;;;12.56;100.00;100495.31;5607045;31;33683;-70
2023/08/08 04:20:51;;;;;;;2.80;1.20;;;;;;;12.66;100.00;100489.75;5606945;31;34585;-71
2023/08/08 04:23:54;;;;;;;1.80;1.10;;;;;;;12.78;100.00;100498.97;5606131;31;33635;-71
2023/08/08 04:26:57;;;;;;;6.12;1.40;;;;;;;12.82;100.00;100502.94;5606766;31;34551;-71
2023/08/08 04:30:01;;;;;;;4.28;1.10;;;;;;;12.89;100.00;100503.03;5606890;31;34264;-70
2023/08/08 04:33:03;;;;;;;3.62;1.17;;;;;;;12.99;100.00;100514.28;5606645;31;33966;-70
2023/08/08 04:36:06;;;;;;;3.28;1.10;;;;;;;13.11;100.00;100512.00;5606818;31;33835;-71
2023/08/08 04:39:09;;;;;;;3.62;1.20;;;;;;;13.11;100.00;100517.34;5607148;31;33896;-71
2023/08/08 04:42:12;;;;;;;4.43;1.35;;;;;;;13.03;100.00;100513.72;5606750;31;33993;-71
2023/08/08 04:45:14;;;;;;;5.12;1.30;;;;;;;13.11;100.00;100510.22;5606574;31;34300;-70
2023/08/08 04:48:17;;;;;;;2.65;1.30;;;;;;;13.19;100.00;100506.62;5606525;31;33814;-71
2023/08/08 04:51:20;;;;;;;3.65;1.20;;;;;;;13.20;100.00;100519.78;5605864;31;33889;-71
2023/08/08 04:54:23;;;;;;;3.05;1.27;;;;;;;13.26;100.00;100516.41;5606453;31;33945;-71
2023/08/08 04:57:25;;;;;;;5.80;1.70;;;;;;;13.40;100.00;100517.41;5606401;31;33797;-71
2023/08/08 05:00:28;;;;;;;2.92;1.35;;;;;;;13.53;100.00;100519.44;5606327;31;33853;-70
2023/08/08 05:03:31;;;;;;;4.55;1.40;;;;;;;13.61;100.00;100517.50;5606387;31;33710;-71
2023/08/08 05:06:34;;;;;;;4.70;1.20;;;;;;;13.78;100.00;100524.31;5606062;31;33521;-71
2023/08/08 05:09:37;;;;;;;5.62;1.60;;;;;;;13.84;100.00;100533.41;5605997;31;34864;-71
2023/08/08 05:12:43;;;;;;;4.62;1.55;;;;;;;13.90;100.00;100525.47;5605609;31;34092;-71
2023/08/08 05:15:45;;;;;;;1.55;1.17;;;;;;;13.99;100.00;100522.75;5606289;31;33738;-70
2023/08/08 05:18:48;;;;;;;4.45;1.52;;;;;;;14.03;100.00;100524.84;5604248;31;34025;-71
2023/08/08 05:21:51;;;;;;;4.45;1.30;;;;;;;14.16;100.00;100527.66;5606166;31;34042;-70
2023/08/08 05:24:54;;;;;;;2.78;1.42;;;;;;;14.26;100.00;100528.19;5606069;31;34538;-70
2023/08/08 05:27:59;;;;;;;2.78;1.40;;;;;;;14.37;100.00;100520.75;5606134;31;33863;-71
2023/08/08 05:31:04;;;;;;;2.78;1.27;;;;;;;14.40;100.00;100528.37;5605722;31;33519;-69
2023/08/08 05:34:07;;;;;;;2.80;1.30;;;;;;;14.50;100.00;100532.37;5587369;31;32839;-69
2023/08/08 05:37:10;;;;;;;2.78;1.30;;;;;;;14.53;100.00;100533.84;5598877;31;33905;-69
2023/08/08 05:40:19;;;;;;;3.47;1.30;;;;;;;14.64;100.00;100536.84;5605018;31;33705;-69
2023/08/08 05:43:22;;;;;;;4.65;1.65;;;;;;;14.71;100.00;100545.75;5605588;31;34330;-72
2023/08/08 05:46:25;;;;;;;3.37;1.50;;;;;;;14.79;100.00;100536.78;5605443;31;33796;-69
2023/08/08 05:49:28;;;;;;;3.92;1.30;;;;;;;14.83;100.00;100535.37;5605463;31;33615;-69
2023/08/08 05:52:33;;;;;;;4.93;1.70;;;;;;;14.78;100.00;100548.47;5605351;31;33785;-70
2023/08/08 05:55:36;;;;;;;6.50;1.55;;;;;;;14.86;100.00;100542.19;5605260;31;33832;-71
2023/08/08 05:58:38;;;;;;;3.08;1.37;;;;;;;14.95;100.00;100549.06;5605538;31;33242;-69
2023/08/08 06:01:44;;;;;;;6.57;1.80;;;;;;;15.11;100.00;100552.25;5604496;31;33797;-69
2023/08/08 06:04:47;;;;;;;2.35;1.27;;;;;;;15.08;100.00;100544.66;5591559;31;33607;-70
2023/08/08 06:07:50;;;;;;;3.45;1.30;;;;;;;15.18;100.00;100552.34;5589194;31;34345;-68
2023/08/08 06:10:59;;;;;;;5.97;1.70;;;;;;;15.21;100.00;100546.59;5593189;31;33862;-71
2023/08/08 06:14:04;;;;;;;3.62;1.55;;;;;;;15.25;100.00;100550.53;5587566;31;34253;-70
2023/08/08 06:17:08;;;;;;;2.33;1.20;;;;;;;15.38;100.00;100555.16;5588107;31;33753;-70
2023/08/08 06:20:10;;;;;;;7.70;1.77;;;;;;;15.48;100.00;100552.97;5587959;31;34540;-70
2023/08/08 06:23:22;;;;;;;3.50;1.40;;;;;;;15.56;100.00;100559.03;5587041;31;33850;-70
2023/08/08 06:26:25;;;;;;;5.20;1.50;;;;;;;15.67;100.00;100556.81;5587554;31;33965;-71
2023/08/08 06:29:28;;;;;;;3.85;1.70;;;;;;;15.79;100.00;100563.25;5588037;31;34230;-70
2023/08/08 06:32:31;;;;;;;6.35;1.80;;;;;;;15.86;100.00;100554.28;5587224;31;33693;-70
2023/08/08 06:35:35;;;;;;;3.72;1.35;;;;;;;16.15;100.00;100560.38;5587463;31;33673;-70
2023/08/08 06:38:38;;;;;;;5.68;1.58;;;;;;;16.27;100.00;100556.91;5586968;31;33855;-70
2023/08/08 06:41:41;;;;;;;6.03;1.65;;;;;;;16.28;100.00;100566.59;5574095;31;34886;-71
2023/08/08 06:44:44;;;;;;;3.78;1.40;;;;;;;16.42;100.00;100567.47;5587837;31;33947;-70
2023/08/08 06:47:49;;;;;;;5.22;1.70;;;;;;;16.39;100.00;100576.75;5587659;31;34529;-70
2023/08/08 06:50:52;;;;;;;4.55;1.60;;;;;;;16.50;100.00;100578.03;5587624;31;33592;-70
2023/08/08 06:53:58;;;;;;;3.45;1.67;;;;;;;16.53;100.00;100585.63;5586579;31;34428;-69
2023/08/08 06:57:02;;;;;;;6.22;1.50;;;;;;;16.50;100.00;100592.25;5587759;31;34363;-71
2023/08/08 07:00:06;;;;;;;9.70;1.60;;;;;;;16.90;100.00;100595.03;5599475;31;34133;-70
2023/08/08 07:03:09;;;;;;;3.42;1.60;;;;;;;17.08;100.00;100586.41;5607264;31;33800;-71
2023/08/08 07:06:17;;;;;;;6.55;1.60;;;;;;;17.33;100.00;100590.94;5606428;31;33732;-70
2023/08/08 07:09:25;;;;;;;2.17;1.35;;;;;;;17.53;100.00;100590.09;5588926;31;34198;-70
2023/08/08 07:12:29;;;;;;;5.35;1.70;;;;;;;17.47;100.00;100588.28;5606812;31;33629;-70
2023/08/08 07:15:31;;;;;;;2.47;1.60;;;;;;;17.83;100.00;100585.13;5606892;31;33688;-71
2023/08/08 07:18:34;;;;;;;8.98;1.50;;;;;;;18.67;99.14;100586.72;5607252;31;34753;-70
2023/08/08 07:21:37;;;;;;;7.50;1.70;;;;;;;18.57;96.87;100580.16;5607056;31;34607;-70
2023/08/08 07:24:44;;;;;;;4.10;1.42;;;;;;;18.80;91.19;100585.78;5604576;31;34902;-71
2023/08/08 07:27:48;;;;;;;3.58;1.48;;;;;;;19.44;84.78;100588.25;5607439;31;33781;-70
2023/08/08 07:30:51;;;;;;;3.17;1.62;;;;;;;19.51;81.40;100589.00;5606722;31;35079;-70
2023/08/08 07:33:54;;;;;;;7.93;1.60;;;;;;;18.92;83.74;100581.38;5605148;31;33834;-70
2023/08/08 07:36:56;;;;;;;6.62;1.52;;;;;;;19.50;81.88;100583.84;5607173;31;34475;-70
2023/08/08 07:39:59;;;;;;;3.87;1.50;;;;;;;19.25;81.96;100591.91;5607083;31;34195;-71
2023/08/08 07:43:02;;;;;;;5.30;1.35;;;;;;;20.09;77.22;100590.50;5606030;31;33920;-70
2023/08/08 07:46:06;;;;;;;4.95;1.67;;;;;;;20.11;77.24;100597.28;5596059;31;33646;-70
2023/08/08 07:49:09;;;;;;;4.45;1.48;;;;;;;19.51;79.10;100596.25;5587159;31;33898;-70
2023/08/08 07:52:11;;;;;;;9.00;1.40;;;;;;;20.10;77.57;100602.91;5586821;31;33564;-72
2023/08/08 07:55:16;;;;;;;6.43;1.48;;;;;;;21.01;70.45;100597.41;5587901;31;33082;-71
2023/08/08 07:58:19;;;;;;;4.47;1.35;;;;;;;21.37;68.24;100597.25;5587101;31;34385;-71
2023/08/08 08:01:22;;;;;;;4.72;1.60;;;;;;;20.96;67.33;100603.44;5586775;31;34630;-71
2023/08/08 08:04:26;;;;;;;2.20;1.30;;;;;;;21.05;69.93;100595.88;5597660;31;33831;-72
2023/08/08 08:07:28;;;;;;;3.97;1.60;;;;;;;21.98;64.15;100602.19;5605906;31;33964;-72
2023/08/08 08:10:31;;;;;;;4.20;1.30;;;;;;;21.75;63.78;100588.69;5605726;31;33592;-70
2023/08/08 08:13:35;;;;;;;3.90;1.48;;;;;;;22.73;57.07;100585.09;5589639;31;33839;-70
2023/08/08 08:16:38;;;;;;;4.72;1.45;;;;;;;21.49;60.02;100594.56;5586562;31;34607;-69
2023/08/08 08:19:42;;;;;;;7.47;1.30;;;;;;;23.10;54.09;100607.94;5586976;31;32621;-71
2023/08/08 08:22:45;;;;;;;6.55;1.40;;;;;;;23.46;54.69;100606.69;5586569;31;33604;-73
2023/08/08 08:25:48;;;;;;;3.33;1.40;;;;;;;23.98;52.86;100600.94;5571724;31;35363;-71
2023/08/08 08:28:53;;;;;;;3.65;1.30;;;;;;;24.04;50.63;100610.78;5586799;31;33553;-71
2023/08/08 08:31:56;;;;;;;5.97;1.50;;;;;;;24.27;49.71;100607.84;5586617;31;34653;-71
2023/08/08 08:35:03;;;;;;;6.05;1.55;;;;;;;24.03;49.28;100606.44;5589402;31;33687;-71
2023/08/08 08:38:07;;;;;;;5.00;1.50;;;;;;;24.98;46.82;100603.25;5586293;31;34592;-72
2023/08/08 08:41:15;;;;;;;6.10;1.42;;;;;;;24.48;47.88;100615.19;5586392;31;34424;-72
2023/08/08 08:44:18;;;;;;;3.67;1.45;;;;;;;25.07;46.11;100604.44;5586773;31;34175;-72
2023/08/08 08:47:22;;;;;;;3.55;1.30;;;;;;;24.47;46.47;100612.72;5585408;31;33746;-72
2023/08/08 08:50:34;;;;;;;3.70;1.40;;;;;;;23.54;48.56;100608.97;5593567;31;35256;-73
2023/08/08 08:53:39;;;;;;;4.75;1.42;;;;;;;23.76;48.76;100611.75;5591511;31;33845;-71
2023/08/08 08:56:42;;;;;;;4.22;1.60;;;;;;;22.40;51.06;100604.69;5594454;31;34606;-72
2023/08/08 08:59:45;;;;;;;2.12;1.30;;;;;;;22.44;51.75;100614.78;5604075;31;34019;-71
2023/08/08 09:02:49;;;;;;;3.45;1.33;;;;;;;22.33;52.63;100599.41;5587690;31;34528;-71
2023/08/08 09:05:54;;;;;;;4.53;1.50;;;;;;;23.05;52.35;100607.03;5588289;31;34243;-71
2023/08/08 09:08:57;;;;;;;2.40;1.20;;;;;;;22.30;53.91;100610.72;5585965;31;34924;-71
2023/08/08 09:12:18;;;;;;;13.95;1.92;;;;;;;21.85;54.05;100601.59;5585943;31;34455;-71
2023/08/08 09:15:23;;;;;;;5.70;1.33;;;;;;;21.30;56.62;100606.50;5597043;31;33734;-71
2023/08/08 09:18:31;;;;;;;8.20;1.48;;;;;;;21.53;55.17;100603.84;5597896;31;33874;-71
2023/08/08 09:21:34;;;;;;;2.33;1.27;;;;;;;22.06;54.13;100612.66;5588281;31;33866;-73
2023/08/08 09:24:40;;;;;;;3.67;1.40;;;;;;;21.75;56.30;100618.38;5588554;31;33893;-73
2023/08/08 09:27:43;;;;;;;7.28;1.60;;;;;;;22.84;53.37;100611.28;5603605;31;33825;-71
2023/08/08 09:30:46;;;;;;;3.25;1.45;;;;;;;22.39;54.37;100611.16;5593097;31;33766;-71
2023/08/08 09:33:51;;;;;;;2.87;1.50;;;;;;;23.27;52.68;100616.91;5586815;31;34482;-72
2023/08/08 09:36:56;;;;;;;2.97;1.10;;;;;;;23.64;50.63;100630.78;5584909;31;33833;-72
2023/08/08 09:40:05;;;;;;;2.35;1.33;;;;;;;24.77;47.75;100623.91;5591500;31;33952;-72
2023/08/08 09:43:12;;;;;;;4.78;1.30;;;;;;;26.94;44.06;100624.56;5605170;31;33896;-71
2023/08/08 09:46:15;;;;;;;4.60;1.80;;;;;;;26.93;44.10;100624.84;5597452;31;34878;-72
2023/08/08 09:49:22;;;;;;;3.90;1.30;;;;;;;27.13;43.68;100624.88;5587876;31;34251;-72
2023/08/08 09:52:30;;;;;;;4.18;1.58;;;;;;;26.51;43.19;100625.78;5588836;31;33919;-73
2023/08/08 09:55:34;;;;;;;3.58;1.42;;;;;;;24.97;44.69;100618.72;5597658;31;34883;-73
2023/08/08 09:58:37;;;;;;;3.80;1.55;;;;;;;24.98;45.15;100623.06;5588675;31;33757;-71
2023/08/08 10:01:41;;;;;;;3.62;1.40;;;;;;;25.43;44.29;100606.34;5609441;31;34816;-71
2023/08/08 10:04:46;;;;;;;2.42;1.30;;;;;;;24.47;44.93;100623.56;5608526;31;33965;-72
2023/08/08 10:07:48;;;;;;;5.10;1.50;;;;;;;27.56;40.35;100618.06;5605693;31;34239;-72
2023/08/08 10:10:52;;;;;;;4.05;1.40;;;;;;;27.37;41.63;100619.69;5593697;31;33737;-73
2023/08/08 10:13:57;;;;;;;2.92;1.20;;;;;;;26.29;41.69;100612.38;5593584;31;33848;-71
2023/08/08 10:17:03;;;;;;;2.58;1.23;;;;;;;26.77;39.88;100613.09;5594143;31;34321;-72
2023/08/08 10:20:11;;;;;;;4.97;1.15;;;;;;;26.90;39.06;100606.31;5596344;31;33696;-72
2023/08/08 10:23:15;;;;;;;5.40;1.20;;;;;;;27.00;40.46;100612.59;5596312;31;33875;-72
2023/08/08 10:26:20;;;;;;;3.12;1.40;;;;;;;27.75;38.62;100597.34;5592153;31;32649;-72
2023/08/08 10:29:26;;;;;;;2.65;1.20;;;;;;;29.11;35.96;100595.91;5587865;31;33841;-73
2023/08/08 10:32:39;;;;;;;3.87;1.17;;;;;;;29.80;34.26;100598.31;5587932;31;32243;-71
2023/08/08 10:36:00;;;;;;;3.97;1.37;;;;;;;28.51;34.62;100595.16;5592628;31;33767;-73
2023/08/08 10:39:03;;;;;;;2.37;1.00;;;;;;;26.15;37.27;100575.81;5586872;31;34605;-71
2023/08/08 10:42:09;;;;;;;3.22;1.27;;;;;;;27.72;36.57;100589.72;5587663;31;34437;-73
2023/08/08 10:45:14;;;;;;;2.15;1.08;;;;;;;25.48;38.53;100584.66;5587906;31;33832;-70
2023/08/08 10:48:20;;;;;;;3.30;1.15;;;;;;;26.65;37.01;100577.94;5587442;31;34330;-73
2023/08/08 10:51:22;;;;;;;2.10;1.12;;;;;;;29.01;34.37;100584.22;5587161;31;32676;-71
2023/08/08 10:54:30;;;;;;;2.40;1.08;;;;;;;29.65;33.29;100582.06;5587382;31;34038;-71
2023/08/08 10:57:33;;;;;;;3.92;1.30;;;;;;;29.89;31.89;100570.34;5586991;31;33868;-71
2023/08/08 11:00:39;;;;;;;3.90;1.40;;;;;;;29.29;33.38;100578.81;5587572;31;34375;-71
2023/08/08 11:03:44;;;;;;;3.12;1.30;;;;;;;29.12;33.28;100583.06;5587191;31;33783;-72
2023/08/08 11:06:47;;;;;;;1.73;1.00;;;;;;;27.71;34.72;100566.28;5587627;31;33863;-73
2023/08/08 11:09:49;;;;;;;3.37;1.20;;;;;;;26.45;36.30;100561.56;5587465;31;33736;-71
2023/08/08 11:13:04;;;;;;;2.33;1.20;;;;;;;25.40;38.89;100565.31;5587348;31;33981;-73
2023/08/08 11:16:07;;;;;;;3.12;1.30;;;;;;;24.42;39.97;100569.25;5587160;31;34814;-72
2023/08/08 11:19:11;;;;;;;1.98;1.20;;;;;;;25.34;38.64;100572.63;5587011;31;33787;-72
2023/08/08 11:22:14;;;;;;;2.08;1.20;;;;;;;26.78;38.64;100563.78;5587283;31;34445;-70
2023/08/08 11:25:17;;;;;;;4.25;1.37;;;;;;;27.09;36.24;100572.84;5587439;31;34342;-72
2023/08/08 11:28:19;;;;;;;4.43;1.27;;;;;;;26.61;37.37;100568.69;5594574;31;34745;-71
2023/08/08 11:31:24;;;;;;;2.97;1.37;;;;;;;28.25;34.58;100576.47;5596130;31;34256;-72
2023/08/08 11:34:30;;;;;;;2.40;1.12;;;;;;;29.23;34.01;100569.03;5589417;31;34349;-72
2023/08/08 11:37:33;;;;;;;2.85;1.02;;;;;;;29.51;32.53;100575.63;5587240;31;34600;-73
2023/08/08 11:40:37;;;;;;;3.28;1.08;;;;;;;27.67;35.31;100573.38;5586831;31;33946;-73
2023/08/08 11:43:41;;;;;;;4.10;1.30;;;;;;;26.28;39.13;100563.69;5603154;31;33829;-72
2023/08/08 11:46:47;;;;;;;2.17;1.20;;;;;;;26.57;37.48;100564.88;5597130;31;33907;-72
2023/08/08 11:49:52;;;;;;;1.83;1.20;;;;;;;29.10;33.29;100561.47;5597064;31;35122;-71
2023/08/08 11:52:55;;;;;;;2.90;1.45;;;;;;;29.14;32.35;100557.09;5605978;31;33990;-72
2023/08/08 11:56:00;;;;;;;1.92;1.33;;;;;;;29.59;32.49;100558.59;5606619;31;33810;-72
2023/08/08 11:59:03;;;;;;;4.57;1.30;;;;;;;27.74;35.12;100554.00;5606539;31;34430;-72
2023/08/08 12:02:06;;;;;;;5.55;1.37;;;;;;;28.09;33.66;100551.97;5605387;31;33842;-70
2023/08/08 12:05:12;;;;;;;2.33;1.20;;;;;;;26.60;36.56;100542.53;5606920;31;33809;-70
2023/08/08 12:08:23;;;;;;;3.20;1.10;;;;;;;27.17;36.14;100534.16;5606989;31;33858;-72
2023/08/08 12:11:27;;;;;;;3.42;1.27;;;;;;;28.66;34.20;100545.13;5606904;31;33812;-69
2023/08/08 12:14:30;;;;;;;3.30;1.30;;;;;;;29.11;34.17;100538.53;5597102;31;34507;-72
2023/08/08 12:17:34;;;;;;;3.62;1.20;;;;;;;31.38;31.40;100537.50;5586429;31;34440;-72
2023/08/08 12:20:37;;;;;;;1.62;1.10;;;;;;;34.93;27.15;100529.38;5587160;31;34815;-72
2023/08/08 12:23:40;;;;;;;2.17;1.10;;;;;;;35.23;23.54;100538.59;5586659;31;34188;-72
2023/08/08 12:26:43;;;;;;;2.62;1.30;;;;;;;31.56;27.24;100526.78;5585810;31;33775;-70
2023/08/08 12:29:46;;;;;;;5.35;1.20;;;;;;;31.60;26.89;100525.06;5586951;31;33978;-74
2023/08/08 12:32:49;;;;;;;4.10;1.30;;;;;;;31.34;26.57;100531.00;5587282;31;33878;-72
2023/08/08 12:35:52;;;;;;;2.58;1.23;;;;;;;30.61;27.37;100528.91;5585856;31;33846;-72
2023/08/08 12:38:55;;;;;;;2.50;1.33;;;;;;;29.87;29.03;100524.09;5586815;31;33996;-74
2023/08/08 12:41:58;;;;;;;2.53;1.40;;;;;;;30.23;28.79;100527.22;5586991;31;34431;-72
2023/08/08 12:45:00;;;;;;;2.92;1.23;;;;;;;31.80;26.93;100530.16;5586741;31;33526;-72
2023/08/08 12:48:04;;;;;;;2.47;1.30;;;;;;;32.18;26.72;100525.28;5586708;31;34545;-73
2023/08/08 12:51:08;;;;;;;3.60;1.10;;;;;;;29.04;32.47;100518.13;5586836;31;33957;-73
2023/08/08 12:54:11;;;;;;;3.12;1.27;;;;;;;26.28;34.45;100510.09;5586621;31;34121;-71
2023/08/08 12:57:14;;;;;;;2.80;1.20;;;;;;;25.39;37.25;100510.19;5587088;31;33748;-71
2023/08/08 13:00:17;;;;;;;1.95;1.10;;;;;;;25.86;37.79;100507.47;5586891;31;34688;-72
2023/08/08 13:03:20;;;;;;;2.83;1.30;;;;;;;25.91;37.27;100515.63;5586848;31;33631;-72
2023/08/08 13:06:23;;;;;;;4.18;1.37;;;;;;;24.92;39.09;100507.41;5586684;31;33597;-71
2023/08/08 13:09:26;;;;;;;3.80;1.20;;;;;;;23.81;40.40;100508.88;5586486;31;34276;-71
2023/08/08 13:12:28;;;;;;;3.25;1.30;;;;;;;23.07;42.89;100507.47;5586000;31;33808;-72
2023/08/08 13:15:31;;;;;;;3.62;1.30;;;;;;;22.32;45.79;100495.06;5586438;31;34959;-71
2023/08/08 13:18:34;;;;;;;7.25;1.50;;;;;;;22.56;44.85;100503.09;5586084;31;34578;-72
2023/08/08 13:21:37;;;;;;;2.05;1.35;;;;;;;22.08;45.19;100507.84;5585877;31;33754;-71
2023/08/08 13:24:40;;;;;;;2.60;1.42;;;;;;;21.80;45.43;100510.47;5586337;31;33946;-72
2023/08/08 13:27:42;;;;;;;9.57;1.67;;;;;;;21.52;47.25;100511.22;5586683;31;33823;-71
2023/08/08 13:30:45;;;;;;;3.85;1.50;;;;;;;21.21;48.50;100522.38;5586727;31;34592;-70
2023/08/08 13:33:49;;;;;;;3.80;1.20;;;;;;;20.59;50.00;100532.66;5586539;31;33825;-72
2023/08/08 13:36:52;;;;;;;4.60;1.20;;;;;;;20.22;50.84;100528.37;5586011;31;34449;-71
2023/08/08 13:39:54;;;;;;;5.90;1.50;;;;;;;19.93;49.67;100536.19;5585309;31;34683;-72
2023/08/08 13:42:57;;;;;;;5.60;1.40;;;;;;;19.98;51.05;100535.50;5586154;31;33796;-70
2023/08/08 13:46:00;;;;;;;4.40;1.10;;;;;;;19.68;53.24;100531.91;5585174;31;34304;-70
2023/08/08 13:49:03;;;;;;;1.73;1.20;;;;;;;19.45;54.96;100529.88;5585547;31;34794;-71
2023/08/08 13:52:06;;;;;;;2.50;1.30;;;;;;;19.43;56.09;100526.53;5587201;31;33729;-70
2023/08/08 13:55:09;;;;;;;2.92;1.30;;;;;;;19.38;56.78;100527.22;5585637;31;33864;-71
2023/08/08 13:58:11;;;;;;;1.48;1.25;;;;;;;19.50;57.05;100528.16;5585727;31;33648;-71
2023/08/08 14:01:14;;;;;;;3.28;1.35;;;;;;;19.38;58.08;100519.13;5585811;31;33877;-71
2023/08/08 14:04:17;;;;;;;3.83;1.52;;;;;;;19.41;58.61;100529.44;5584654;31;34388;-71
2023/08/08 14:07:21;;;;;;;3.05;1.40;;;;;;;19.64;60.42;100528.03;5578832;31;33733;-71
2023/08/08 14:10:24;;;;;;;6.78;1.08;;;;;;;19.58;58.73;100532.44;5585348;31;34715;-70